Time;durP1;ratioP1;P1;durP2;ratioP2;P2;SDS_P1;SDS_P2;PMS_P1;PMS_P2;Temp;Humidity;BMP_temperature;BMP_pressure;BME280_temperature;BME280_humidity;BME280_pressure;Samples;Min_cycle;Max_cycle;Signal;HPM_P1;HPM_P2
2021/11/16 00:01:09;;;;;;;24.03;9.77;;;6.10;99.90;;;;;;4957906;28;20113;-87
2021/11/16 00:03:35;;;;;;;18.47;7.90;;;6.10;99.90;;;;;;4972911;28;20039;-87
2021/11/16 00:06:01;;;;;;;21.07;8.80;;;6.10;99.90;;;;;;4964627;28;20019;-87
2021/11/16 00:08:26;;;;;;;20.60;8.63;;;6.10;99.90;;;;;;4959189;28;20023;-87
2021/11/16 00:10:52;;;;;;;20.00;8.60;;;6.10;99.90;;;;;;4957603;28;20054;-87
2021/11/16 00:13:18;;;;;;;18.17;7.60;;;6.10;99.90;;;;;;4976040;28;20022;-86
2021/11/16 00:15:45;;;;;;;20.07;8.73;;;6.10;99.90;;;;;;4958299;28;20035;-87
2021/11/16 00:18:13;;;;;;;20.27;8.97;;;6.10;99.90;;;;;;4958886;28;20031;-87
2021/11/16 00:20:43;;;;;;;22.43;8.97;;;6.10;99.90;;;;;;4948851;28;20035;-88
2021/11/16 00:23:21;;;;;;;21.20;8.27;;;6.10;99.90;;;;;;4939140;29;20039;-87
2021/11/16 00:25:51;;;;;;;20.50;8.33;;;6.10;99.90;;;;;;4956132;28;20039;-86
2021/11/16 00:28:17;;;;;;;25.80;8.20;;;6.10;99.90;;;;;;4939455;29;20034;-88
2021/11/16 00:30:43;;;;;;;20.93;8.73;;;6.20;99.90;;;;;;4939438;29;20035;-87
2021/11/16 00:33:09;;;;;;;22.27;9.73;;;6.20;99.90;;;;;;4955220;28;20039;-87
2021/11/16 00:35:38;;;;;;;19.63;8.23;;;6.20;99.90;;;;;;4955206;28;20034;-88
2021/11/16 00:38:09;;;;;;;20.17;8.20;;;6.20;99.90;;;;;;4957037;28;20035;-88
2021/11/16 00:40:36;;;;;;;22.53;8.87;;;6.20;99.90;;;;;;4957774;28;20480;-87
2021/11/16 00:43:04;;;;;;;19.87;8.07;;;6.20;99.90;;;;;;4975115;28;20038;-87
2021/11/16 00:45:30;;;;;;;19.43;7.70;;;6.10;99.90;;;;;;4957532;28;20118;-87
2021/11/16 00:47:55;;;;;;;18.33;7.13;;;6.10;99.90;;;;;;4943410;28;20118;-87
2021/11/16 00:50:21;;;;;;;19.80;8.17;;;6.10;99.90;;;;;;4975399;28;20030;-86
2021/11/16 00:52:48;;;;;;;19.73;8.13;;;6.20;99.90;;;;;;4975094;28;20035;-87
2021/11/16 00:55:14;;;;;;;21.17;8.90;;;6.10;99.90;;;;;;4969164;28;20027;-87
2021/11/16 00:57:42;;;;;;;22.27;8.43;;;6.10;99.90;;;;;;4955950;28;20124;-88
2021/11/16 01:00:10;;;;;;;18.73;7.93;;;6.10;99.90;;;;;;4938314;29;20035;-87
2021/11/16 01:02:36;;;;;;;21.57;8.80;;;6.00;99.90;;;;;;4955318;28;20034;-87
2021/11/16 01:05:02;;;;;;;18.40;8.13;;;6.00;99.90;;;;;;4972549;28;20019;-86
2021/11/16 01:07:28;;;;;;;17.80;7.60;;;6.00;99.90;;;;;;4957024;28;20102;-87
2021/11/16 01:09:54;;;;;;;21.77;7.93;;;6.00;99.90;;;;;;4957401;28;20467;-87
2021/11/16 01:12:21;;;;;;;22.43;8.60;;;6.00;99.90;;;;;;4973157;28;20058;-87
2021/11/16 01:14:47;;;;;;;17.87;8.17;;;6.10;99.90;;;;;;4956946;28;20388;-87
2021/11/16 01:17:13;;;;;;;23.23;8.07;;;6.00;99.90;;;;;;4957124;28;20038;-87
2021/11/16 01:19:40;;;;;;;18.63;8.03;;;6.10;99.90;;;;;;4954964;28;20027;-88
2021/11/16 01:22:06;;;;;;;21.47;8.17;;;6.10;99.90;;;;;;4957073;28;20019;-86
2021/11/16 01:24:31;;;;;;;20.50;8.70;;;6.10;99.90;;;;;;4956920;28;20101;-88
2021/11/16 01:27:05;;;;;;;21.40;8.20;;;6.00;99.90;;;;;;4982737;23;20194;-88
2021/11/16 01:29:37;;;;;;;19.00;8.23;;;6.00;99.90;;;;;;4972734;28;20437;-89
2021/11/16 01:32:25;;;;;;;17.27;6.75;;;6.00;99.90;;;;;;4955586;28;20030;-89
2021/11/16 01:35:06;;;;;;;19.20;7.17;;;6.00;99.90;;;;;;4955586;28;20127;-87
2021/11/16 01:37:50;;;;;;;19.07;7.27;;;6.10;99.90;;;;;;4953195;28;20097;-89
2021/11/16 01:40:18;;;;;;;18.67;7.97;;;6.10;99.90;;;;;;4955768;28;20030;-89
2021/11/16 01:43:09;;;;;;;16.60;6.83;;;6.10;99.90;;;;;;4955256;28;20134;-90
2021/11/16 01:45:44;;;;;;;17.07;6.70;;;6.10;99.90;;;;;;4936872;29;20110;-88
2021/11/16 01:48:16;;;;;;;16.90;7.27;;;6.10;99.90;;;;;;4954023;29;20063;-90
2021/11/16 01:51:04;;;;;;;16.63;7.40;;;6.00;99.90;;;;;;4952404;29;20106;-89
2021/11/16 01:53:33;;;;;;;16.30;7.73;;;6.00;99.90;;;;;;4960877;28;20053;-89
2021/11/16 01:56:07;;;;;;;17.60;7.43;;;6.00;99.90;;;;;;4955822;28;20023;-89
2021/11/16 01:58:51;;;;;;;18.73;7.73;;;5.90;99.90;;;;;;4955679;28;20034;-88
2021/11/16 02:01:40;;;;;;;16.47;7.23;;;6.00;99.90;;;;;;4950514;28;20047;-89
2021/11/16 02:04:15;;;;;;;19.33;7.57;;;5.90;99.90;;;;;;4936339;29;20114;-89
2021/11/16 02:06:49;;;;;;;16.67;7.10;;;5.90;99.90;;;;;;4951724;29;20039;-88
2021/11/16 02:09:16;;;;;;;20.97;7.97;;;5.90;99.90;;;;;;4966480;28;20034;-89
2021/11/16 02:11:55;;;;;;;19.07;7.47;;;6.00;99.90;;;;;;4954767;28;20029;-89
2021/11/16 02:14:35;;;;;;;18.67;7.40;;;5.80;99.90;;;;;;4955013;28;20043;-89
2021/11/16 02:17:07;;;;;;;19.17;8.43;;;5.80;99.90;;;;;;4968698;28;20027;-89
2021/11/16 02:19:47;;;;;;;21.35;7.95;;;5.80;99.90;;;;;;4954881;28;20053;-90
2021/11/16 02:22:13;;;;;;;17.23;7.33;;;5.80;99.90;;;;;;4971461;28;20038;-89
2021/11/16 02:24:39;;;;;;;22.30;8.07;;;5.70;99.90;;;;;;4955286;28;20031;-89
2021/11/16 02:27:08;;;;;;;18.90;7.73;;;5.80;99.90;;;;;;4955072;28;20034;-89
2021/11/16 02:29:34;;;;;;;17.27;7.73;;;5.80;99.90;;;;;;4952116;28;20509;-89
2021/11/16 02:32:00;;;;;;;19.17;8.10;;;5.70;99.90;;;;;;4951521;28;20034;-89
2021/11/16 02:34:57;;;;;;;17.33;6.93;;;5.80;99.90;;;;;;4952326;28;20396;-89
2021/11/16 02:37:23;;;;;;;18.87;8.50;;;5.80;99.90;;;;;;4911816;29;20043;-89
2021/11/16 02:39:49;;;;;;;19.93;7.90;;;5.80;99.90;;;;;;4968309;28;20027;-89
2021/11/16 02:42:20;;;;;;;21.67;8.40;;;5.70;99.90;;;;;;4963850;28;20085;-89
2021/11/16 02:44:47;;;;;;;20.40;8.10;;;5.70;99.90;;;;;;4954899;28;20031;-89
2021/11/16 02:47:13;;;;;;;17.23;7.33;;;5.80;99.90;;;;;;4954899;28;20057;-89
2021/11/16 02:49:38;;;;;;;17.13;7.30;;;5.80;99.90;;;;;;4951330;28;20066;-89
2021/11/16 02:52:13;;;;;;;19.73;7.87;;;5.80;99.90;;;;;;4951641;29;20023;-89
2021/11/16 02:54:39;;;;;;;18.20;7.23;;;5.80;99.90;;;;;;4953575;28;20034;-89
2021/11/16 02:57:12;;;;;;;19.13;7.57;;;5.70;99.90;;;;;;4971176;28;20023;-89
2021/11/16 02:59:42;;;;;;;19.67;8.10;;;5.80;99.90;;;;;;4954853;28;20114;-89
2021/11/16 03:02:11;;;;;;;19.30;7.70;;;5.80;99.90;;;;;;4972337;28;20063;-89
2021/11/16 03:04:43;;;;;;;17.90;8.00;;;5.70;99.90;;;;;;4952554;28;20094;-88
2021/11/16 03:07:10;;;;;;;18.03;7.43;;;5.80;99.90;;;;;;4948390;28;20019;-89
2021/11/16 03:09:35;;;;;;;18.03;8.03;;;5.70;99.90;;;;;;4969443;28;20046;-89
2021/11/16 03:12:02;;;;;;;20.83;7.93;;;5.80;99.90;;;;;;4950987;28;20397;-89
2021/11/16 03:14:28;;;;;;;21.23;8.17;;;5.80;99.90;;;;;;4964085;28;20117;-89
2021/11/16 03:16:55;;;;;;;18.07;7.50;;;5.70;99.90;;;;;;4954749;28;20044;-89
2021/11/16 03:19:21;;;;;;;24.53;7.57;;;5.70;99.90;;;;;;4972102;28;20035;-88
2021/11/16 03:21:55;;;;;;;17.40;7.00;;;5.70;99.90;;;;;;4952779;28;20463;-89
2021/11/16 03:24:27;;;;;;;19.33;8.17;;;5.70;99.90;;;;;;4954725;28;20125;-89
2021/11/16 03:26:54;;;;;;;19.13;8.67;;;5.60;99.90;;;;;;4954731;28;20062;-90
2021/11/16 03:29:24;;;;;;;19.60;7.73;;;5.60;99.90;;;;;;4950808;28;20031;-89
2021/11/16 03:32:18;;;;;;;20.50;7.90;;;5.60;99.90;;;;;;4951302;29;20027;-88
2021/11/16 03:34:45;;;;;;;21.20;7.27;;;5.60;99.90;;;;;;4952401;29;20028;-89
2021/11/16 03:37:12;;;;;;;20.27;7.83;;;5.60;99.90;;;;;;4954586;28;20582;-90
2021/11/16 03:39:39;;;;;;;17.33;7.87;;;5.60;99.90;;;;;;4969326;28;20030;-89
2021/11/16 03:42:06;;;;;;;23.90;8.87;;;5.60;99.90;;;;;;4954600;28;20019;-89
2021/11/16 03:44:33;;;;;;;19.20;8.20;;;5.60;99.90;;;;;;4954472;28;20054;-88
2021/11/16 03:46:59;;;;;;;20.53;7.90;;;5.60;99.90;;;;;;4954528;28;20023;-89
2021/11/16 03:49:24;;;;;;;16.63;6.80;;;5.60;99.90;;;;;;4953226;28;20027;-89
2021/11/16 03:51:50;;;;;;;19.30;7.63;;;5.60;99.90;;;;;;4948818;28;20031;-89
2021/11/16 03:54:16;;;;;;;18.33;7.87;;;5.60;99.90;;;;;;4935742;29;20027;-89
2021/11/16 03:56:42;;;;;;;19.27;8.30;;;5.60;99.90;;;;;;4938032;29;20031;-89
2021/11/16 03:59:08;;;;;;;19.63;7.83;;;5.60;99.90;;;;;;4947163;28;20511;-89
2021/11/16 04:01:34;;;;;;;18.70;7.20;;;5.60;99.90;;;;;;4970162;28;20027;-89
2021/11/16 04:04:02;;;;;;;21.50;7.80;;;5.50;99.90;;;;;;4984884;28;20075;-89
2021/11/16 04:06:28;;;;;;;20.60;7.87;;;5.50;99.90;;;;;;4977523;28;20157;-89
2021/11/16 04:08:54;;;;;;;19.03;7.30;;;5.50;99.90;;;;;;4957758;28;20122;-88
2021/11/16 04:11:20;;;;;;;19.13;8.00;;;5.50;99.90;;;;;;4957261;28;20027;-89
2021/11/16 04:13:46;;;;;;;18.43;7.83;;;5.50;99.90;;;;;;4957507;28;20031;-89
2021/11/16 04:16:15;;;;;;;23.80;8.13;;;5.50;99.90;;;;;;4974996;28;20030;-89
2021/11/16 04:18:45;;;;;;;19.40;8.47;;;5.50;99.90;;;;;;4958097;28;20047;-89
2021/11/16 04:21:16;;;;;;;20.03;7.73;;;5.40;99.90;;;;;;4958605;28;20034;-89
2021/11/16 04:23:44;;;;;;;21.30;7.72;;;5.50;99.90;;;;;;4974968;28;20035;-89
2021/11/16 04:26:10;;;;;;;18.80;7.77;;;5.40;99.90;;;;;;4952502;29;20035;-89
2021/11/16 04:28:36;;;;;;;21.37;7.43;;;5.40;99.90;;;;;;4955794;29;20038;-89
2021/11/16 04:31:02;;;;;;;20.20;8.03;;;5.50;99.90;;;;;;4955087;29;20031;-88
2021/11/16 04:33:29;;;;;;;17.77;7.97;;;5.50;99.90;;;;;;4954364;29;20050;-89
2021/11/16 04:35:55;;;;;;;18.17;7.27;;;5.50;99.90;;;;;;4968439;28;20027;-89
2021/11/16 04:38:20;;;;;;;19.13;7.80;;;5.50;99.90;;;;;;4974660;28;20367;-89
2021/11/16 04:44:38;;;;;;;16.13;7.40;;;5.40;99.90;;;;;;4976743;28;20038;-89
2021/11/16 04:47:09;;;;;;;17.90;7.10;;;5.40;99.90;;;;;;4950236;28;20062;-89
2021/11/16 04:49:40;;;;;;;21.63;8.93;;;5.40;99.90;;;;;;4956729;28;20688;-87
2021/11/16 05:20:10;;;;;;;19.10;7.33;;;5.40;99.90;;;;;;4957327;28;20035;-89
2021/11/16 05:22:39;;;;;;;22.17;8.23;;;5.30;99.90;;;;;;4913315;29;20052;-89
2021/11/16 05:25:37;;;;;;;;;;;;;;;;;;;;;
2021/11/16 05:28:09;;;;;;;19.40;6.90;;;5.30;99.90;;;;;;4977084;28;20035;-89
2021/11/16 05:30:53;;;;;;;20.58;7.97;;;5.10;99.90;;;;;;4958045;28;22580;-89
2021/11/16 05:33:28;;;;;;;21.73;8.00;;;5.20;99.90;;;;;;4957178;28;20566;-89
2021/11/16 05:36:37;;;;;;;21.93;8.23;;;5.20;99.90;;;;;;4971991;28;20019;-89
2021/11/16 05:39:12;;;;;;;22.10;7.77;;;5.10;99.90;;;;;;4972816;28;20037;-89
2021/11/16 05:41:38;;;;;;;18.70;7.37;;;5.20;99.90;;;;;;4956321;28;20030;-88
2021/11/16 05:54:00;;;;;;;21.90;7.78;;;5.20;99.90;;;;;;4944079;28;20070;-89
2021/11/16 05:56:36;;;;;;;22.87;8.43;;;5.20;99.90;;;;;;4960046;28;20032;-89
2021/11/16 05:59:46;;;;;;;20.73;8.23;;;5.20;99.90;;;;;;4957660;28;20031;-89
2021/11/16 06:02:17;;;;;;;18.57;8.13;;;5.20;99.90;;;;;;4942021;28;20547;-88
2021/11/16 06:05:08;;;;;;;25.13;8.27;;;5.10;99.90;;;;;;4959232;28;20030;-88
2021/11/16 06:15:39;;;;;;;18.93;6.90;;;5.10;99.90;;;;;;4871508;29;20596;-89
2021/11/16 06:17:42;;;;;;;17.45;7.38;;;5.10;99.90;;;;;;4870395;28;20057;-89
2021/11/16 06:24:07;;;;;;;22.13;7.30;;;5.00;99.90;;;;;;4962032;28;20461;-89
2021/11/16 06:26:33;;;;;;;18.75;6.60;;;5.00;99.90;;;;;;4952470;28;20051;-87
2021/11/16 06:29:00;;;;;;;15.67;6.40;;;4.90;99.90;;;;;;4956168;28;20095;-87
2021/11/16 06:31:26;;;;;;;14.93;6.73;;;4.90;99.90;;;;;;4968246;28;20057;-87
2021/11/16 06:33:55;;;;;;;14.93;5.67;;;4.80;99.90;;;;;;4958575;28;20050;-87
2021/11/16 06:36:23;;;;;;;18.13;6.30;;;4.70;99.90;;;;;;4954135;28;20050;-87
2021/11/16 06:38:48;;;;;;;16.63;5.50;;;4.70;99.90;;;;;;4957175;28;20181;-87
2021/11/16 06:41:14;;;;;;;16.00;6.37;;;4.70;99.90;;;;;;4971123;28;20061;-88
2021/11/16 06:43:40;;;;;;;15.67;5.93;;;4.70;99.90;;;;;;4954906;28;20663;-88
2021/11/16 06:46:12;;;;;;;21.57;6.87;;;4.80;99.90;;;;;;4952279;28;20029;-87
2021/11/16 06:48:38;;;;;;;;;;;4.80;99.90;;;;;;4955367;28;20042;-87
2021/11/16 06:51:04;;;;;;;19.33;6.00;;;4.90;99.90;;;;;;4971773;28;20270;-88
2021/11/16 06:53:34;;;;;;;18.17;6.40;;;4.90;99.90;;;;;;4954618;28;20030;-87
2021/11/16 06:56:01;;;;;;;14.87;6.03;;;4.90;99.90;;;;;;4954187;28;20027;-87
2021/11/16 06:58:28;;;;;;;12.77;6.03;;;4.90;99.90;;;;;;4954451;28;20031;-88
2021/11/16 07:00:55;;;;;;;14.27;6.33;;;4.90;99.90;;;;;;4954517;28;20554;-88
2021/11/16 07:03:23;;;;;;;14.20;5.90;;;4.90;99.90;;;;;;4953480;28;20054;-88
2021/11/16 07:06:03;;;;;;;15.87;6.63;;;4.80;99.90;;;;;;4949427;28;20033;-88
2021/11/16 07:08:30;;;;;;;13.23;6.00;;;4.80;99.90;;;;;;4955263;28;20027;-88
2021/11/16 07:11:26;;;;;;;15.90;6.13;;;4.90;99.90;;;;;;4953914;28;20475;-88
2021/11/16 07:13:54;;;;;;;16.10;5.43;;;4.80;99.90;;;;;;4936201;28;20093;-88
2021/11/16 07:16:19;;;;;;;13.73;6.10;;;4.90;99.90;;;;;;4971847;28;20023;-87
2021/11/16 07:18:48;;;;;;;14.73;5.50;;;4.90;99.90;;;;;;4954680;28;20026;-87
2021/11/16 07:21:14;;;;;;;16.03;6.40;;;4.90;99.90;;;;;;4952903;28;20023;-88
2021/11/16 07:23:40;;;;;;;14.70;6.27;;;4.80;99.90;;;;;;4968080;28;20029;-87
2021/11/16 07:26:15;;;;;;;12.80;6.20;;;4.90;99.90;;;;;;4971910;28;20115;-88
2021/11/16 07:28:47;;;;;;;15.47;6.27;;;4.90;99.90;;;;;;4952707;28;20027;-87
2021/11/16 07:31:37;;;;;;;15.02;5.97;;;4.90;99.90;;;;;;4974216;23;21760;-91
2021/11/16 07:34:10;;;;;;;14.63;5.33;;;4.90;99.90;;;;;;4974274;28;20031;-91
2021/11/16 07:36:35;;;;;;;16.80;5.73;;;4.90;99.90;;;;;;4958104;28;20027;-92
2021/11/16 07:39:05;;;;;;;13.27;6.40;;;5.00;99.90;;;;;;4956264;28;20034;-90
2021/11/16 07:41:31;;;;;;;17.53;6.53;;;5.00;99.90;;;;;;4949862;28;20035;-90
2021/11/16 07:43:58;;;;;;;17.73;6.53;;;4.90;99.90;;;;;;4959087;28;20035;-90
2021/11/16 07:46:23;;;;;;;15.53;6.20;;;4.90;99.90;;;;;;4958422;28;20410;-91
2021/11/16 07:48:52;;;;;;;12.87;5.50;;;4.90;99.90;;;;;;4958790;28;20114;-89
2021/11/16 07:51:17;;;;;;;16.03;5.87;;;4.90;99.90;;;;;;4958337;28;20038;-91
2021/11/16 07:53:52;;;;;;;17.13;6.30;;;5.00;99.90;;;;;;4959579;28;20022;-92
2021/11/16 07:56:23;;;;;;;14.23;5.50;;;5.00;99.90;;;;;;4960009;28;20407;-91
2021/11/16 07:58:52;;;;;;;14.50;5.97;;;5.00;99.90;;;;;;4960279;28;20030;-92
2021/11/16 08:01:35;;;;;;;16.77;6.87;;;5.10;99.90;;;;;;4959374;28;20122;-92
2021/11/16 08:07:03;;;;;;;17.42;6.45;;;5.10;99.90;;;;;;4970431;28;20399;-92
2021/11/16 08:12:06;;;;;;;16.87;6.43;;;5.00;99.90;;;;;;4966138;28;20027;-92
2021/11/16 08:14:34;;;;;;;15.43;6.47;;;5.10;99.90;;;;;;4940378;29;20117;-92
2021/11/16 08:17:06;;;;;;;16.30;6.17;;;5.10;99.90;;;;;;4943120;29;20027;-92
2021/11/16 08:19:34;;;;;;;11.80;5.90;;;5.00;99.90;;;;;;4957802;28;20026;-92
2021/11/16 08:22:26;;;;;;;13.97;5.37;;;5.10;99.90;;;;;;4959453;28;20030;-92
2021/11/16 08:24:54;;;;;;;13.80;6.43;;;5.10;99.90;;;;;;4954758;28;20041;-93
2021/11/16 08:27:34;;;;;;;14.67;6.70;;;4.90;99.90;;;;;;4958954;28;20027;-92
2021/11/16 08:30:15;;;;;;;14.03;6.17;;;5.00;99.90;;;;;;4940255;29;20031;-91
2021/11/16 08:32:44;;;;;;;15.97;6.13;;;5.10;99.90;;;;;;4939697;29;20043;-92
2021/11/16 08:35:14;;;;;;;14.40;5.57;;;5.10;99.90;;;;;;4958106;28;20130;-92
2021/11/16 08:37:43;;;;;;;18.90;6.73;;;5.10;99.90;;;;;;4955406;28;20046;-92
2021/11/16 08:40:13;;;;;;;16.10;6.57;;;5.10;99.90;;;;;;4958644;28;20027;-92
2021/11/16 08:42:42;;;;;;;19.20;6.70;;;5.10;99.90;;;;;;4957942;28;20034;-91
2021/11/16 08:45:13;;;;;;;17.47;6.77;;;5.10;99.90;;;;;;4959040;28;20023;-93
2021/11/16 08:47:42;;;;;;;14.50;6.37;;;5.10;99.90;;;;;;4958522;28;20101;-91
2021/11/16 08:50:29;;;;;;;15.47;6.03;;;5.20;99.90;;;;;;4958092;28;20026;-92
2021/11/16 08:52:56;;;;;;;15.93;6.60;;;5.10;99.90;;;;;;4958158;28;20030;-92
2021/11/16 08:55:28;;;;;;;16.53;5.83;;;5.20;99.90;;;;;;4958209;28;20041;-92
2021/11/16 08:57:55;;;;;;;14.40;6.20;;;5.20;99.90;;;;;;4958365;28;20093;-92
2021/11/16 09:00:23;;;;;;;16.27;6.43;;;5.20;99.90;;;;;;4957841;28;20038;-92
2021/11/16 09:02:50;;;;;;;15.63;6.83;;;5.20;99.90;;;;;;4955047;28;20031;-92
2021/11/16 09:05:18;;;;;;;14.90;5.73;;;5.20;99.90;;;;;;4946147;29;20051;-92
2021/11/16 09:07:54;;;;;;;19.60;6.37;;;5.20;99.90;;;;;;4939193;29;20140;-92
2021/11/16 09:10:20;;;;;;;15.47;5.97;;;5.20;99.90;;;;;;4953454;28;20391;-92
2021/11/16 09:12:53;;;;;;;17.63;6.57;;;5.20;99.90;;;;;;4958266;28;20035;-92
2021/11/16 09:15:48;;;;;;;12.93;5.23;;;5.20;99.90;;;;;;4958103;28;20586;-92
2021/11/16 09:18:29;;;;;;;16.87;6.00;;;5.30;99.90;;;;;;4958118;28;20026;-92
2021/11/16 09:21:11;;;;;;;19.13;6.97;;;5.30;99.90;;;;;;4957790;28;20380;-92
2021/11/16 09:23:44;;;;;;;21.60;7.63;;;5.30;99.90;;;;;;4956834;28;20031;-93
2021/11/16 09:29:23;;;;;;;15.90;5.57;;;5.20;99.90;;;;;;4975555;28;20031;-92
2021/11/16 09:31:50;;;;;;;15.90;5.28;;;5.20;99.90;;;;;;4957482;28;20522;-93
2021/11/16 09:34:38;;;;;;;16.63;6.77;;;5.20;99.90;;;;;;4974904;28;20049;-93
2021/11/16 09:37:07;;;;;;;17.93;5.83;;;5.10;99.90;;;;;;4958575;28;20039;-92
2021/11/16 09:39:58;;;;;;;15.37;5.67;;;5.00;99.90;;;;;;4959301;28;20031;-93
2021/11/16 09:42:33;;;;;;;14.17;5.20;;;5.20;99.90;;;;;;4955524;28;20038;-93
2021/11/16 09:45:09;;;;;;;14.10;5.23;;;5.20;99.90;;;;;;4939395;29;20027;-94
2021/11/16 09:47:40;;;;;;;13.47;5.27;;;5.10;99.90;;;;;;4942205;28;20024;-93
2021/11/16 09:50:20;;;;;;;11.57;4.20;;;5.30;99.90;;;;;;4957856;28;20475;-92
2021/11/16 09:53:00;;;;;;;13.57;5.33;;;5.30;99.90;;;;;;4958120;28;20027;-92
2021/11/16 09:55:35;;;;;;;13.13;4.43;;;5.30;99.90;;;;;;4959191;28;20125;-93
2021/11/16 09:58:06;;;;;;;11.77;4.20;;;5.30;99.90;;;;;;4964037;28;20030;-92
2021/11/16 10:00:40;;;;;;;13.35;4.78;;;5.30;99.90;;;;;;4970589;28;20035;-92
2021/11/16 10:03:13;;;;;;;13.07;4.60;;;5.30;99.90;;;;;;4958411;28;20035;-93
2021/11/16 10:05:48;;;;;;;12.77;5.10;;;5.30;99.90;;;;;;4959001;28;20050;-93
2021/11/16 10:08:16;;;;;;;12.87;4.17;;;5.30;99.90;;;;;;4954861;29;20041;-92
2021/11/16 10:10:48;;;;;;;11.67;4.50;;;5.40;99.90;;;;;;4963880;28;20046;-93
2021/11/16 10:13:19;;;;;;;10.52;4.25;;;5.30;99.90;;;;;;4956576;28;20026;-93
2021/11/16 10:15:50;;;;;;;14.67;5.07;;;5.30;99.90;;;;;;4958139;28;20027;-92
2021/11/16 10:18:20;;;;;;;14.73;5.60;;;5.30;99.90;;;;;;4958146;28;20031;-93
2021/11/16 10:20:47;;;;;;;11.73;4.87;;;5.30;99.90;;;;;;4957958;28;20027;-93
2021/11/16 10:23:18;;;;;;;11.27;4.47;;;5.30;99.90;;;;;;4954892;29;20034;-93
2021/11/16 10:25:54;;;;;;;7.68;3.00;;;5.30;99.90;;;;;;4941008;29;20046;-91
2021/11/16 10:28:22;;;;;;;12.10;4.53;;;5.30;99.90;;;;;;4937882;29;20491;-91
2021/11/16 10:30:47;;;;;;;10.17;3.70;;;5.40;99.90;;;;;;4937230;28;20023;-92
2021/11/16 10:33:23;;;;;;;9.53;3.73;;;5.30;99.90;;;;;;4937855;29;20455;-92
2021/11/16 10:36:11;;;;;;;11.67;3.93;;;5.20;99.90;;;;;;4937588;29;20042;-92
2021/11/16 10:38:37;;;;;;;9.90;3.60;;;5.30;99.90;;;;;;4937816;29;20062;-92
2021/11/16 10:41:06;;;;;;;11.07;4.30;;;5.30;99.90;;;;;;4965985;28;20034;-92
2021/11/16 10:43:43;;;;;;;10.40;3.77;;;5.30;99.90;;;;;;4974815;28;20031;-91
2021/11/16 10:46:10;;;;;;;9.63;3.50;;;5.40;99.90;;;;;;4958723;28;20026;-91
2021/11/16 10:48:37;;;;;;;10.73;4.37;;;5.40;99.90;;;;;;4956943;28;20023;-92
2021/11/16 10:51:12;;;;;;;11.03;3.97;;;5.40;99.90;;;;;;4955586;28;20030;-92
2021/11/16 10:53:41;;;;;;;13.53;3.73;;;5.30;99.90;;;;;;4956839;28;20043;-92
2021/11/16 10:56:09;;;;;;;9.73;4.10;;;5.30;99.90;;;;;;4956515;28;20078;-92
2021/11/16 10:58:40;;;;;;;10.20;3.47;;;5.40;99.90;;;;;;4956883;28;20027;-92
2021/11/16 11:01:14;;;;;;;11.00;3.93;;;5.40;99.90;;;;;;4956196;28;20610;-92
2021/11/16 11:03:54;;;;;;;9.50;3.93;;;5.50;99.90;;;;;;4956289;28;20200;-91
2021/11/16 11:06:33;;;;;;;11.23;3.67;;;5.50;99.90;;;;;;4975227;28;20030;-91
2021/11/16 11:09:06;;;;;;;11.07;3.70;;;5.60;99.90;;;;;;4961765;28;20018;-92
2021/11/16 11:11:38;;;;;;;11.90;4.23;;;5.60;99.90;;;;;;4961999;28;20019;-92
2021/11/16 11:14:31;;;;;;;10.52;3.70;;;5.60;99.90;;;;;;4962779;28;20038;-92
2021/11/16 11:16:58;;;;;;;8.00;3.63;;;5.50;99.90;;;;;;4962988;28;20038;-91
2021/11/16 11:19:32;;;;;;;12.87;3.80;;;5.50;99.90;;;;;;4962979;28;20034;-92
2021/11/16 11:22:22;;;;;;;10.37;3.80;;;5.50;99.90;;;;;;4963028;28;20038;-92
2021/11/16 11:27:35;;;;;;;14.23;4.43;;;5.50;99.90;;;;;;4980156;28;20055;-92
2021/11/16 11:30:12;;;;;;;12.07;4.17;;;5.50;99.90;;;;;;4962521;28;20057;-91
2021/11/16 11:32:41;;;;;;;10.87;4.37;;;5.40;99.90;;;;;;4962633;28;20039;-91
2021/11/16 11:35:15;;;;;;;13.07;4.23;;;5.50;99.90;;;;;;4962326;28;20023;-92
2021/11/16 11:37:50;;;;;;;15.40;4.10;;;5.40;99.90;;;;;;4963618;28;20057;-93
2021/11/16 11:40:18;;;;;;;11.10;3.77;;;5.40;99.90;;;;;;4963694;28;20030;-93
2021/11/16 11:42:50;;;;;;;11.83;4.27;;;5.50;99.90;;;;;;4963667;28;20109;-93
2021/11/16 11:45:24;;;;;;;10.10;3.53;;;5.50;99.90;;;;;;4963877;28;20154;-92
2021/11/16 11:47:51;;;;;;;11.10;3.37;;;5.50;99.90;;;;;;4979419;28;20549;-92
2021/11/16 11:50:37;;;;;;;14.93;3.73;;;5.50;99.90;;;;;;4979161;28;20026;-93
2021/11/16 11:53:09;;;;;;;13.77;4.10;;;5.50;99.90;;;;;;4963255;28;20125;-92
2021/11/16 11:55:38;;;;;;;10.73;2.95;;;5.40;99.90;;;;;;4963774;28;20030;-93
2021/11/16 11:58:07;;;;;;;12.40;4.40;;;5.40;99.90;;;;;;4963628;28;20031;-92
2021/11/16 12:00:34;;;;;;;10.00;3.77;;;5.40;99.90;;;;;;4962842;28;20067;-93
2021/11/16 12:03:02;;;;;;;12.80;4.37;;;5.40;99.90;;;;;;4962705;28;20031;-93
2021/11/16 12:05:31;;;;;;;10.77;4.20;;;5.50;99.90;;;;;;4963683;28;20516;-93
2021/11/16 12:07:57;;;;;;;9.93;3.53;;;5.40;99.90;;;;;;4963950;28;20022;-93
2021/11/16 12:10:23;;;;;;;8.93;3.13;;;5.50;99.90;;;;;;4964098;28;20023;-93
2021/11/16 12:12:51;;;;;;;10.67;3.47;;;5.60;99.90;;;;;;4964576;28;20019;-93
2021/11/16 12:15:25;;;;;;;10.63;3.70;;;5.60;99.90;;;;;;4960343;28;20047;-93
2021/11/16 12:17:54;;;;;;;7.97;2.77;;;5.50;99.90;;;;;;4962857;28;20026;-93
2021/11/16 12:21:06;;;;;;;9.87;2.97;;;5.50;99.90;;;;;;4961238;28;20076;-93
2021/11/16 12:23:55;;;;;;;10.40;3.07;;;5.50;99.90;;;;;;4982557;28;20089;-93
2021/11/16 12:26:47;;;;;;;7.17;2.90;;;5.60;99.90;;;;;;4960865;28;20031;-93
2021/11/16 12:29:18;;;;;;;5.65;1.92;;;5.50;99.90;;;;;;4954447;28;20074;-93
2021/11/16 12:31:46;;;;;;;9.27;3.10;;;5.50;99.90;;;;;;4960865;28;20035;-93
2021/11/16 12:34:47;;;;;;;6.80;2.57;;;5.50;99.90;;;;;;4961731;28;20102;-93
2021/11/16 12:37:42;;;;;;;6.33;2.43;;;5.60;99.90;;;;;;4946168;28;20039;-93
2021/11/16 12:40:41;;;;;;;9.67;2.60;;;5.60;99.90;;;;;;4955235;29;20027;-93
2021/11/16 12:43:06;;;;;;;9.53;3.10;;;5.70;99.90;;;;;;4956262;28;20042;-93
2021/11/16 12:45:40;;;;;;;6.27;2.37;;;5.70;99.90;;;;;;4960910;28;20027;-93
2021/11/16 12:48:14;;;;;;;7.57;2.77;;;5.80;99.90;;;;;;4960889;28;20023;-93
2021/11/16 12:51:13;;;;;;;7.10;2.23;;;5.80;99.90;;;;;;4962268;28;20025;-93
2021/11/16 12:54:05;;;;;;;6.10;2.23;;;5.80;99.90;;;;;;4959805;28;20038;-93
2021/11/16 12:56:48;;;;;;;6.23;2.40;;;5.80;99.90;;;;;;4960397;28;20616;-93
2021/11/16 12:59:22;;;;;;;4.73;1.87;;;5.80;99.90;;;;;;4963931;28;20054;-93
2021/11/16 13:01:51;;;;;;;5.20;2.30;;;5.80;99.90;;;;;;4961174;28;20026;-93
2021/11/16 13:04:38;;;;;;;5.50;1.97;;;5.80;99.90;;;;;;4957157;29;20050;-93
2021/11/16 13:07:32;;;;;;;7.07;2.20;;;5.80;99.90;;;;;;4941966;29;20024;-93
2021/11/16 13:10:03;;;;;;;5.77;2.13;;;5.80;99.90;;;;;;4957494;29;20388;-93
2021/11/16 13:12:53;;;;;;;6.63;2.20;;;5.80;99.90;;;;;;4961245;28;20106;-92
2021/11/16 13:15:23;;;;;;;7.10;2.60;;;5.80;99.90;;;;;;4961773;28;20047;-93
2021/11/16 13:17:59;;;;;;;7.13;2.50;;;5.80;99.90;;;;;;4963536;28;20086;-94
2021/11/16 13:20:49;;;;;;;6.33;2.43;;;5.80;99.90;;;;;;4961352;28;20026;-93
2021/11/16 13:23:18;;;;;;;9.93;2.53;;;5.80;99.90;;;;;;4962759;28;20487;-93
2021/11/16 13:25:47;;;;;;;7.20;3.10;;;5.80;99.90;;;;;;4961490;28;20029;-93
2021/11/16 13:33:41;;;;;;;7.37;2.77;;;5.80;99.90;;;;;;4970051;23;20543;-88
2021/11/16 13:36:08;;;;;;;6.68;2.70;;;5.70;99.90;;;;;;4960197;29;20026;-88
2021/11/16 13:38:53;;;;;;;6.33;2.33;;;5.70;99.90;;;;;;4977795;29;20031;-88
2021/11/16 13:41:55;;;;;;;7.27;2.43;;;5.80;99.90;;;;;;4957449;28;20038;-87
2021/11/16 13:44:41;;;;;;;6.70;2.40;;;5.70;99.90;;;;;;4948192;29;20385;-88
2021/11/16 13:47:28;;;;;;;7.60;2.83;;;5.70;99.90;;;;;;4933849;29;20024;-88
2021/11/16 13:50:05;;;;;;;7.50;2.97;;;5.70;99.90;;;;;;4936299;29;20047;-88
2021/11/16 13:52:45;;;;;;;7.93;2.63;;;5.70;99.90;;;;;;4938961;29;20023;-88
2021/11/16 13:55:13;;;;;;;6.43;2.50;;;5.70;99.90;;;;;;4938666;29;20495;-88
2021/11/16 13:57:48;;;;;;;6.23;2.57;;;5.80;99.90;;;;;;4926153;29;20051;-88
2021/11/16 14:00:22;;;;;;;9.43;2.57;;;5.80;99.90;;;;;;4935826;29;20391;-89
2021/11/16 14:02:54;;;;;;;6.97;2.50;;;5.80;99.90;;;;;;4935510;29;20027;-89
2021/11/16 14:05:26;;;;;;;6.18;2.17;;;5.80;99.90;;;;;;4926177;29;20031;-89
2021/11/16 14:08:25;;;;;;;7.32;2.97;;;5.80;99.90;;;;;;4928889;29;20027;-89
2021/11/16 14:11:01;;;;;;;7.33;2.43;;;5.80;99.90;;;;;;4931737;29;20031;-89
2021/11/16 14:13:44;;;;;;;6.07;2.50;;;5.80;99.90;;;;;;4936703;29;20027;-89
2021/11/16 14:16:28;;;;;;;7.87;2.70;;;5.80;99.90;;;;;;4931322;29;20518;-90
2021/11/16 14:19:05;;;;;;;8.03;2.13;;;5.70;99.90;;;;;;4918280;29;20091;-89
2021/11/16 14:21:39;;;;;;;8.30;2.77;;;5.70;99.90;;;;;;4933734;29;20027;-88
2021/11/16 14:24:05;;;;;;;7.37;2.43;;;5.70;99.90;;;;;;4927499;29;20024;-89
2021/11/16 14:26:34;;;;;;;8.67;2.97;;;5.60;99.90;;;;;;4954683;29;20074;-90
2021/11/16 14:29:00;;;;;;;7.43;2.77;;;5.60;99.90;;;;;;4956079;29;20044;-90